الصفحة الرئيسية
METAR-TAF:

METAR-TAF

مطار :

Gunnison, كولورادو, الولايات المتحدة

دائرة عرض: 38-32N, خط طول: 106-56W, ارتفاع: 2339 متر

مراقبة الطقس الحالي

تاريخ ووقت الإصدار 54 دقيقة قبل الساعة 13:56UTC
ريح 3 عقدة من الشمال/الشمال الشرقي
درجة الحرارة -22°درجة مئوية
الرطوبة 84%
ضغط 1035 hPa
الرؤية: 16.1 كم
سماء صافية

METAR: KGUC 141356Z AUTO 02003KT 10SM CLR M22/M24 A3055 RMK AO2 SLP501 T12221244 FZRANO

زمن: 07:50 (14:50 UTC)

توقعات

تاريخ ووقت الإصدار 3ساعات و 30 دقيقة قبل الساعة 11:20UTC
التوقعات صالحة من14 الساعة 12 UTC إلى 15 الساعة 12 UTC
ريح عقدة من الشمال
الرؤية: 10 كم
سماء صافية

TAF: KGUC 141120Z 1412/1512 00000KT P6SM SKC

أرصاد الطقس والتوقعات من أكثر من 4000 مطار (تقارير الطقس للمطار METAR والتنبؤ بالطقس بالمطارTAF).

المحطات المتاحة هي النقط الصفراء والحمراء على الخريطة.

حرك المؤشر فوق النقطة لمعرفة اسم المحطة.

ثم انقر لمعرفة أرصاد وتوقعات الطقس.

لتغيير الخارطة: اضغط على الأزرار الخضراء مع رمز الصليب الأسود للتكبير. على الزر الأخضر مع شرطة للتصغير، أو على الأسهم الخضراء للخرائط المجاورة.


METAR-TAF: